sensor_id;sensor_type;location;lat;lon;timestamp;P1;durP1;ratioP1;P2;durP2;ratioP2
67902;SDS011;54708;43.612;1.568;2023-04-03T00:00:52;6.07;;;3.50;;
67902;SDS011;54708;43.612;1.568;2023-04-03T00:03:18;4.30;;;3.85;;
67902;SDS011;54708;43.612;1.568;2023-04-03T00:05:44;6.95;;;3.95;;
67902;SDS011;54708;43.612;1.568;2023-04-03T00:08:10;6.85;;;3.92;;
67902;SDS011;54708;43.612;1.568;2023-04-03T00:10:36;5.05;;;4.13;;
67902;SDS011;54708;43.612;1.568;2023-04-03T00:13:02;6.15;;;3.53;;
67902;SDS011;54708;43.612;1.568;2023-04-03T00:15:29;4.55;;;3.85;;
67902;SDS011;54708;43.612;1.568;2023-04-03T00:17:55;8.00;;;4.03;;
67902;SDS011;54708;43.612;1.568;2023-04-03T00:20:20;4.97;;;4.05;;
67902;SDS011;54708;43.612;1.568;2023-04-03T00:22:45;7.28;;;3.97;;
67902;SDS011;54708;43.612;1.568;2023-04-03T00:25:11;6.30;;;3.42;;
67902;SDS011;54708;43.612;1.568;2023-04-03T00:27:37;5.28;;;3.53;;
67902;SDS011;54708;43.612;1.568;2023-04-03T00:30:04;5.68;;;3.55;;
67902;SDS011;54708;43.612;1.568;2023-04-03T00:32:30;11.90;;;4.68;;
67902;SDS011;54708;43.612;1.568;2023-04-03T00:34:56;9.18;;;4.55;;
67902;SDS011;54708;43.612;1.568;2023-04-03T00:37:21;6.10;;;3.65;;
67902;SDS011;54708;43.612;1.568;2023-04-03T00:39:46;4.45;;;4.05;;
67902;SDS011;54708;43.612;1.568;2023-04-03T00:42:12;6.15;;;4.47;;
67902;SDS011;54708;43.612;1.568;2023-04-03T00:47:03;6.70;;;3.40;;
67902;SDS011;54708;43.612;1.568;2023-04-03T00:49:31;9.30;;;4.90;;
67902;SDS011;54708;43.612;1.568;2023-04-03T00:51:56;7.05;;;3.72;;
67902;SDS011;54708;43.612;1.568;2023-04-03T00:54:22;4.55;;;3.75;;
67902;SDS011;54708;43.612;1.568;2023-04-03T00:56:48;6.13;;;4.35;;
67902;SDS011;54708;43.612;1.568;2023-04-03T00:59:16;6.85;;;3.45;;
67902;SDS011;54708;43.612;1.568;2023-04-03T01:01:50;6.82;;;4.32;;
67902;SDS011;54708;43.612;1.568;2023-04-03T01:04:32;5.90;;;4.70;;
67902;SDS011;54708;43.612;1.568;2023-04-03T01:07:00;8.57;;;5.10;;
67902;SDS011;54708;43.612;1.568;2023-04-03T01:09:34;5.75;;;4.03;;
67902;SDS011;54708;43.612;1.568;2023-04-03T01:12:13;4.60;;;4.20;;
67902;SDS011;54708;43.612;1.568;2023-04-03T01:14:42;6.38;;;4.53;;
67902;SDS011;54708;43.612;1.568;2023-04-03T01:17:32;9.23;;;5.32;;
67902;SDS011;54708;43.612;1.568;2023-04-03T01:23:12;4.43;;;3.90;;
67902;SDS011;54708;43.612;1.568;2023-04-03T01:25:43;5.10;;;4.10;;
67902;SDS011;54708;43.612;1.568;2023-04-03T01:33:15;7.55;;;3.67;;
67902;SDS011;54708;43.612;1.568;2023-04-03T01:35:40;5.93;;;4.10;;
67902;SDS011;54708;43.612;1.568;2023-04-03T01:38:05;5.68;;;4.20;;
67902;SDS011;54708;43.612;1.568;2023-04-03T01:40:31;9.02;;;4.32;;
67902;SDS011;54708;43.612;1.568;2023-04-03T01:42:57;7.25;;;4.45;;
67902;SDS011;54708;43.612;1.568;2023-04-03T01:45:22;5.13;;;3.83;;
67902;SDS011;54708;43.612;1.568;2023-04-03T01:47:47;5.53;;;4.88;;
67902;SDS011;54708;43.612;1.568;2023-04-03T01:50:13;6.35;;;4.13;;
67902;SDS011;54708;43.612;1.568;2023-04-03T01:52:38;7.25;;;4.90;;
67902;SDS011;54708;43.612;1.568;2023-04-03T01:55:04;6.60;;;3.78;;
67902;SDS011;54708;43.612;1.568;2023-04-03T01:57:30;6.05;;;4.05;;
67902;SDS011;54708;43.612;1.568;2023-04-03T01:59:55;5.72;;;4.30;;
67902;SDS011;54708;43.612;1.568;2023-04-03T02:02:21;5.28;;;4.47;;
67902;SDS011;54708;43.612;1.568;2023-04-03T02:04:46;6.25;;;4.20;;
67902;SDS011;54708;43.612;1.568;2023-04-03T02:07:11;4.55;;;4.10;;
67902;SDS011;54708;43.612;1.568;2023-04-03T02:09:37;6.07;;;5.07;;
67902;SDS011;54708;43.612;1.568;2023-04-03T02:12:02;6.07;;;4.80;;
67902;SDS011;54708;43.612;1.568;2023-04-03T02:14:28;6.05;;;4.82;;
67902;SDS011;54708;43.612;1.568;2023-04-03T02:16:53;9.93;;;4.15;;
67902;SDS011;54708;43.612;1.568;2023-04-03T02:19:19;6.93;;;4.40;;
67902;SDS011;54708;43.612;1.568;2023-04-03T02:21:44;6.93;;;4.70;;
67902;SDS011;54708;43.612;1.568;2023-04-03T02:24:10;6.03;;;4.80;;
67902;SDS011;54708;43.612;1.568;2023-04-03T02:26:35;6.80;;;4.57;;
67902;SDS011;54708;43.612;1.568;2023-04-03T02:29:01;5.05;;;4.50;;
67902;SDS011;54708;43.612;1.568;2023-04-03T02:31:26;5.32;;;4.28;;
67902;SDS011;54708;43.612;1.568;2023-04-03T02:33:51;6.30;;;4.78;;
67902;SDS011;54708;43.612;1.568;2023-04-03T02:36:17;6.25;;;4.53;;
67902;SDS011;54708;43.612;1.568;2023-04-03T02:38:42;8.52;;;5.05;;
67902;SDS011;54708;43.612;1.568;2023-04-03T02:41:08;7.03;;;4.85;;
67902;SDS011;54708;43.612;1.568;2023-04-03T02:43:35;5.22;;;4.72;;
67902;SDS011;54708;43.612;1.568;2023-04-03T02:46:01;8.30;;;4.85;;
67902;SDS011;54708;43.612;1.568;2023-04-03T02:48:26;7.85;;;4.47;;
67902;SDS011;54708;43.612;1.568;2023-04-03T02:50:52;7.05;;;5.05;;
67902;SDS011;54708;43.612;1.568;2023-04-03T02:53:18;5.90;;;4.88;;
67902;SDS011;54708;43.612;1.568;2023-04-03T02:55:43;5.85;;;5.28;;
67902;SDS011;54708;43.612;1.568;2023-04-03T02:58:09;7.10;;;5.15;;
67902;SDS011;54708;43.612;1.568;2023-04-03T03:00:35;8.07;;;5.53;;
67902;SDS011;54708;43.612;1.568;2023-04-03T03:03:00;8.80;;;5.03;;
67902;SDS011;54708;43.612;1.568;2023-04-03T03:05:26;7.32;;;5.18;;
67902;SDS011;54708;43.612;1.568;2023-04-03T03:07:52;5.55;;;5.00;;
67902;SDS011;54708;43.612;1.568;2023-04-03T03:10:18;6.43;;;5.03;;
67902;SDS011;54708;43.612;1.568;2023-04-03T03:12:43;8.38;;;5.07;;
67902;SDS011;54708;43.612;1.568;2023-04-03T03:15:09;9.00;;;5.60;;
67902;SDS011;54708;43.612;1.568;2023-04-03T03:17:35;6.93;;;5.25;;
67902;SDS011;54708;43.612;1.568;2023-04-03T03:20:01;8.77;;;5.28;;
67902;SDS011;54708;43.612;1.568;2023-04-03T03:22:27;6.78;;;4.70;;
67902;SDS011;54708;43.612;1.568;2023-04-03T03:24:53;8.32;;;5.05;;
67902;SDS011;54708;43.612;1.568;2023-04-03T03:27:18;6.70;;;5.55;;
67902;SDS011;54708;43.612;1.568;2023-04-03T03:29:43;7.85;;;6.40;;
67902;SDS011;54708;43.612;1.568;2023-04-03T03:32:09;5.32;;;4.82;;
67902;SDS011;54708;43.612;1.568;2023-04-03T03:34:34;6.70;;;4.78;;
67902;SDS011;54708;43.612;1.568;2023-04-03T03:37:00;7.88;;;5.88;;
67902;SDS011;54708;43.612;1.568;2023-04-03T03:39:25;6.25;;;4.97;;
67902;SDS011;54708;43.612;1.568;2023-04-03T03:41:51;5.95;;;5.30;;
67902;SDS011;54708;43.612;1.568;2023-04-03T03:44:18;7.10;;;5.50;;
67902;SDS011;54708;43.612;1.568;2023-04-03T03:46:44;8.38;;;5.68;;
67902;SDS011;54708;43.612;1.568;2023-04-03T03:49:09;9.80;;;5.85;;
67902;SDS011;54708;43.612;1.568;2023-04-03T03:51:36;8.68;;;6.05;;
67902;SDS011;54708;43.612;1.568;2023-04-03T03:54:02;5.90;;;4.90;;
67902;SDS011;54708;43.612;1.568;2023-04-03T03:56:28;7.57;;;5.25;;
67902;SDS011;54708;43.612;1.568;2023-04-03T03:58:53;6.65;;;5.55;;
67902;SDS011;54708;43.612;1.568;2023-04-03T04:01:21;8.63;;;5.28;;
67902;SDS011;54708;43.612;1.568;2023-04-03T04:03:47;6.18;;;5.53;;
67902;SDS011;54708;43.612;1.568;2023-04-03T04:06:12;12.98;;;6.00;;
67902;SDS011;54708;43.612;1.568;2023-04-03T04:08:38;10.63;;;5.68;;
67902;SDS011;54708;43.612;1.568;2023-04-03T04:11:03;9.25;;;6.60;;
67902;SDS011;54708;43.612;1.568;2023-04-03T04:13:29;12.70;;;6.25;;
67902;SDS011;54708;43.612;1.568;2023-04-03T04:15:54;6.70;;;5.47;;
67902;SDS011;54708;43.612;1.568;2023-04-03T04:18:20;8.18;;;6.20;;
67902;SDS011;54708;43.612;1.568;2023-04-03T04:20:46;6.70;;;5.93;;
67902;SDS011;54708;43.612;1.568;2023-04-03T04:23:11;8.07;;;6.55;;
67902;SDS011;54708;43.612;1.568;2023-04-03T04:25:37;9.30;;;5.22;;
67902;SDS011;54708;43.612;1.568;2023-04-03T04:28:02;8.80;;;7.00;;
67902;SDS011;54708;43.612;1.568;2023-04-03T04:30:28;8.30;;;5.82;;
67902;SDS011;54708;43.612;1.568;2023-04-03T04:32:53;7.15;;;6.32;;
67902;SDS011;54708;43.612;1.568;2023-04-03T04:35:19;8.40;;;5.85;;
67902;SDS011;54708;43.612;1.568;2023-04-03T04:37:44;7.88;;;6.57;;
67902;SDS011;54708;43.612;1.568;2023-04-03T04:40:10;7.03;;;6.28;;
67902;SDS011;54708;43.612;1.568;2023-04-03T04:42:35;10.93;;;6.65;;
67902;SDS011;54708;43.612;1.568;2023-04-03T04:45:01;9.95;;;6.13;;
67902;SDS011;54708;43.612;1.568;2023-04-03T04:47:28;6.88;;;6.25;;
67902;SDS011;54708;43.612;1.568;2023-04-03T04:49:54;6.88;;;6.18;;
67902;SDS011;54708;43.612;1.568;2023-04-03T04:52:20;7.70;;;6.68;;
67902;SDS011;54708;43.612;1.568;2023-04-03T04:54:45;8.88;;;6.13;;
67902;SDS011;54708;43.612;1.568;2023-04-03T04:57:11;8.57;;;6.30;;
67902;SDS011;54708;43.612;1.568;2023-04-03T04:59:36;9.70;;;7.57;;
67902;SDS011;54708;43.612;1.568;2023-04-03T05:02:02;7.80;;;6.82;;
67902;SDS011;54708;43.612;1.568;2023-04-03T05:04:27;9.30;;;6.55;;
67902;SDS011;54708;43.612;1.568;2023-04-03T05:06:53;7.43;;;6.07;;
67902;SDS011;54708;43.612;1.568;2023-04-03T05:09:18;7.93;;;6.80;;
67902;SDS011;54708;43.612;1.568;2023-04-03T05:11:45;10.77;;;6.43;;
67902;SDS011;54708;43.612;1.568;2023-04-03T05:14:11;10.88;;;6.55;;
67902;SDS011;54708;43.612;1.568;2023-04-03T05:16:36;8.18;;;6.45;;
67902;SDS011;54708;43.612;1.568;2023-04-03T05:19:02;10.07;;;6.63;;
67902;SDS011;54708;43.612;1.568;2023-04-03T05:21:27;13.45;;;6.18;;
67902;SDS011;54708;43.612;1.568;2023-04-03T05:23:57;9.65;;;6.25;;
67902;SDS011;54708;43.612;1.568;2023-04-03T05:26:23;6.93;;;6.25;;
67902;SDS011;54708;43.612;1.568;2023-04-03T05:28:48;10.55;;;7.40;;
67902;SDS011;54708;43.612;1.568;2023-04-03T05:31:14;20.10;;;6.53;;
67902;SDS011;54708;43.612;1.568;2023-04-03T05:33:39;7.63;;;6.70;;
67902;SDS011;54708;43.612;1.568;2023-04-03T05:36:05;11.15;;;7.18;;
67902;SDS011;54708;43.612;1.568;2023-04-03T05:38:31;9.40;;;7.78;;
67902;SDS011;54708;43.612;1.568;2023-04-03T05:40:57;9.75;;;7.80;;
67902;SDS011;54708;43.612;1.568;2023-04-03T05:43:22;8.35;;;6.97;;
67902;SDS011;54708;43.612;1.568;2023-04-03T05:45:47;8.73;;;6.78;;
67902;SDS011;54708;43.612;1.568;2023-04-03T05:48:13;10.40;;;7.00;;
67902;SDS011;54708;43.612;1.568;2023-04-03T05:50:38;9.80;;;7.45;;
67902;SDS011;54708;43.612;1.568;2023-04-03T05:53:06;31.27;;;8.55;;
67902;SDS011;54708;43.612;1.568;2023-04-03T05:55:32;8.07;;;6.75;;
67902;SDS011;54708;43.612;1.568;2023-04-03T05:57:58;9.82;;;7.50;;
67902;SDS011;54708;43.612;1.568;2023-04-03T06:00:23;11.50;;;7.15;;
67902;SDS011;54708;43.612;1.568;2023-04-03T06:02:48;7.88;;;7.07;;
67902;SDS011;54708;43.612;1.568;2023-04-03T06:05:14;10.50;;;7.75;;
67902;SDS011;54708;43.612;1.568;2023-04-03T06:07:40;11.07;;;7.78;;
67902;SDS011;54708;43.612;1.568;2023-04-03T06:10:06;11.15;;;7.95;;
67902;SDS011;54708;43.612;1.568;2023-04-03T06:12:31;12.23;;;7.43;;
67902;SDS011;54708;43.612;1.568;2023-04-03T06:14:57;12.70;;;8.50;;
67902;SDS011;54708;43.612;1.568;2023-04-03T06:17:23;10.20;;;7.57;;
67902;SDS011;54708;43.612;1.568;2023-04-03T06:19:48;16.13;;;9.27;;
67902;SDS011;54708;43.612;1.568;2023-04-03T06:22:14;10.68;;;7.97;;
67902;SDS011;54708;43.612;1.568;2023-04-03T06:24:39;9.98;;;7.50;;
67902;SDS011;54708;43.612;1.568;2023-04-03T06:27:05;10.07;;;8.02;;
67902;SDS011;54708;43.612;1.568;2023-04-03T06:29:30;9.82;;;7.22;;
67902;SDS011;54708;43.612;1.568;2023-04-03T06:31:56;11.02;;;7.20;;
67902;SDS011;54708;43.612;1.568;2023-04-03T06:34:21;8.25;;;7.18;;
67902;SDS011;54708;43.612;1.568;2023-04-03T06:36:47;11.25;;;9.63;;
67902;SDS011;54708;43.612;1.568;2023-04-03T06:39:14;8.68;;;7.78;;
67902;SDS011;54708;43.612;1.568;2023-04-03T06:41:41;7.13;;;6.43;;
67902;SDS011;54708;43.612;1.568;2023-04-03T06:44:07;9.55;;;6.22;;
67902;SDS011;54708;43.612;1.568;2023-04-03T06:46:36;8.10;;;6.80;;
67902;SDS011;54708;43.612;1.568;2023-04-03T06:49:02;10.88;;;6.57;;
67902;SDS011;54708;43.612;1.568;2023-04-03T06:51:28;11.88;;;7.65;;
67902;SDS011;54708;43.612;1.568;2023-04-03T06:53:55;8.20;;;6.65;;
67902;SDS011;54708;43.612;1.568;2023-04-03T06:56:24;9.60;;;7.47;;
67902;SDS011;54708;43.612;1.568;2023-04-03T06:58:51;6.93;;;6.18;;
67902;SDS011;54708;43.612;1.568;2023-04-03T07:01:19;9.18;;;6.55;;
67902;SDS011;54708;43.612;1.568;2023-04-03T07:03:44;9.23;;;6.20;;
67902;SDS011;54708;43.612;1.568;2023-04-03T07:06:11;9.73;;;6.97;;
67902;SDS011;54708;43.612;1.568;2023-04-03T07:08:38;7.85;;;6.53;;
67902;SDS011;54708;43.612;1.568;2023-04-03T07:11:03;6.00;;;5.40;;
67902;SDS011;54708;43.612;1.568;2023-04-03T07:13:30;9.57;;;6.65;;
67902;SDS011;54708;43.612;1.568;2023-04-03T07:15:55;13.65;;;7.55;;
67902;SDS011;54708;43.612;1.568;2023-04-03T07:18:21;11.02;;;6.38;;
67902;SDS011;54708;43.612;1.568;2023-04-03T07:20:47;9.75;;;6.20;;
67902;SDS011;54708;43.612;1.568;2023-04-03T07:23:12;8.57;;;7.38;;
67902;SDS011;54708;43.612;1.568;2023-04-03T07:25:47;8.63;;;6.70;;
67902;SDS011;54708;43.612;1.568;2023-04-03T07:28:14;10.10;;;6.50;;
67902;SDS011;54708;43.612;1.568;2023-04-03T07:30:48;8.15;;;6.07;;
67902;SDS011;54708;43.612;1.568;2023-04-03T07:33:15;10.85;;;6.97;;
67902;SDS011;54708;43.612;1.568;2023-04-03T07:35:43;12.00;;;6.30;;
67902;SDS011;54708;43.612;1.568;2023-04-03T07:38:08;9.50;;;7.53;;
67902;SDS011;54708;43.612;1.568;2023-04-03T07:40:34;11.27;;;6.97;;
67902;SDS011;54708;43.612;1.568;2023-04-03T07:43:00;11.07;;;6.15;;
67902;SDS011;54708;43.612;1.568;2023-04-03T07:45:26;8.95;;;6.53;;
67902;SDS011;54708;43.612;1.568;2023-04-03T07:47:51;8.55;;;6.13;;
67902;SDS011;54708;43.612;1.568;2023-04-03T07:50:17;10.32;;;7.72;;
67902;SDS011;54708;43.612;1.568;2023-04-03T07:52:43;8.18;;;6.38;;
67902;SDS011;54708;43.612;1.568;2023-04-03T07:55:08;7.25;;;5.93;;
67902;SDS011;54708;43.612;1.568;2023-04-03T07:57:34;10.55;;;6.63;;
67902;SDS011;54708;43.612;1.568;2023-04-03T08:00:00;13.95;;;6.40;;
67902;SDS011;54708;43.612;1.568;2023-04-03T08:02:26;13.52;;;6.57;;
67902;SDS011;54708;43.612;1.568;2023-04-03T08:04:51;8.30;;;6.00;;
67902;SDS011;54708;43.612;1.568;2023-04-03T08:07:17;9.90;;;6.15;;
67902;SDS011;54708;43.612;1.568;2023-04-03T08:09:42;9.77;;;5.18;;
67902;SDS011;54708;43.612;1.568;2023-04-03T08:12:09;9.02;;;5.75;;
67902;SDS011;54708;43.612;1.568;2023-04-03T08:14:36;8.75;;;6.60;;
67902;SDS011;54708;43.612;1.568;2023-04-03T08:17:02;6.30;;;5.22;;
67902;SDS011;54708;43.612;1.568;2023-04-03T08:19:29;8.63;;;5.63;;
67902;SDS011;54708;43.612;1.568;2023-04-03T08:21:54;8.93;;;5.90;;
67902;SDS011;54708;43.612;1.568;2023-04-03T08:24:20;7.20;;;5.68;;
67902;SDS011;54708;43.612;1.568;2023-04-03T08:26:45;9.40;;;6.10;;
67902;SDS011;54708;43.612;1.568;2023-04-03T08:29:11;8.13;;;6.50;;
67902;SDS011;54708;43.612;1.568;2023-04-03T08:31:36;7.30;;;5.32;;
67902;SDS011;54708;43.612;1.568;2023-04-03T08:34:02;9.75;;;5.53;;
67902;SDS011;54708;43.612;1.568;2023-04-03T08:36:27;6.90;;;5.05;;
67902;SDS011;54708;43.612;1.568;2023-04-03T08:38:54;7.85;;;4.80;;
67902;SDS011;54708;43.612;1.568;2023-04-03T08:41:33;9.48;;;5.18;;
67902;SDS011;54708;43.612;1.568;2023-04-03T08:49:36;9.35;;;4.72;;
67902;SDS011;54708;43.612;1.568;2023-04-03T08:52:09;7.25;;;4.68;;
67902;SDS011;54708;43.612;1.568;2023-04-03T08:57:14;5.88;;;5.00;;
67902;SDS011;54708;43.612;1.568;2023-04-03T08:59:40;5.85;;;4.43;;
67902;SDS011;54708;43.612;1.568;2023-04-03T09:02:25;5.50;;;4.22;;
67902;SDS011;54708;43.612;1.568;2023-04-03T09:05:12;8.95;;;4.90;;
67902;SDS011;54708;43.612;1.568;2023-04-03T09:08:03;7.32;;;4.25;;
67902;SDS011;54708;43.612;1.568;2023-04-03T09:10:32;4.93;;;3.83;;
67902;SDS011;54708;43.612;1.568;2023-04-03T09:13:44;9.05;;;5.13;;
67902;SDS011;54708;43.612;1.568;2023-04-03T09:15:53;6.47;;;4.22;;
67902;SDS011;54708;43.612;1.568;2023-04-03T09:23:49;6.03;;;3.67;;
67902;SDS011;54708;43.612;1.568;2023-04-03T09:28:44;7.35;;;3.78;;
67902;SDS011;54708;43.612;1.568;2023-04-03T09:33:54;5.20;;;3.97;;
67902;SDS011;54708;43.612;1.568;2023-04-03T09:36:38;4.07;;;3.25;;
67902;SDS011;54708;43.612;1.568;2023-04-03T09:39:12;4.53;;;3.15;;
67902;SDS011;54708;43.612;1.568;2023-04-03T09:41:54;8.40;;;4.03;;
67902;SDS011;54708;43.612;1.568;2023-04-03T09:44:24;5.28;;;3.78;;
67902;SDS011;54708;43.612;1.568;2023-04-03T09:46:54;5.97;;;3.55;;
67902;SDS011;54708;43.612;1.568;2023-04-03T09:49:20;4.28;;;2.95;;
67902;SDS011;54708;43.612;1.568;2023-04-03T09:51:46;6.53;;;3.58;;
67902;SDS011;54708;43.612;1.568;2023-04-03T09:54:25;4.50;;;3.30;;
67902;SDS011;54708;43.612;1.568;2023-04-03T09:56:57;5.45;;;2.80;;
67902;SDS011;54708;43.612;1.568;2023-04-03T09:59:31;4.53;;;2.88;;
67902;SDS011;54708;43.612;1.568;2023-04-03T10:02:16;8.13;;;4.05;;
67902;SDS011;54708;43.612;1.568;2023-04-03T10:04:47;9.45;;;3.92;;
67902;SDS011;54708;43.612;1.568;2023-04-03T10:07:28;6.72;;;3.85;;
67902;SDS011;54708;43.612;1.568;2023-04-03T10:09:58;6.32;;;3.90;;
67902;SDS011;54708;43.612;1.568;2023-04-03T10:12:26;5.60;;;3.75;;
67902;SDS011;54708;43.612;1.568;2023-04-03T10:20:04;10.05;;;4.63;;
67902;SDS011;54708;43.612;1.568;2023-04-03T10:28:00;4.80;;;3.05;;
67902;SDS011;54708;43.612;1.568;2023-04-03T10:30:54;3.38;;;3.05;;
67902;SDS011;54708;43.612;1.568;2023-04-03T10:39:00;3.13;;;2.55;;
67902;SDS011;54708;43.612;1.568;2023-04-03T10:47:15;2.92;;;2.58;;
67902;SDS011;54708;43.612;1.568;2023-04-03T10:52:39;3.60;;;2.10;;
67902;SDS011;54708;43.612;1.568;2023-04-03T10:57:52;4.90;;;1.98;;
67902;SDS011;54708;43.612;1.568;2023-04-03T11:00:20;2.50;;;2.25;;
67902;SDS011;54708;43.612;1.568;2023-04-03T11:02:50;6.63;;;2.67;;
67902;SDS011;54708;43.612;1.568;2023-04-03T11:05:21;2.67;;;2.42;;
67902;SDS011;54708;43.612;1.568;2023-04-03T11:07:55;3.30;;;1.92;;
67902;SDS011;54708;43.612;1.568;2023-04-03T11:13:13;4.65;;;2.22;;
67902;SDS011;54708;43.612;1.568;2023-04-03T11:15:42;6.55;;;2.75;;
67902;SDS011;54708;43.612;1.568;2023-04-03T11:18:13;4.60;;;2.42;;
67902;SDS011;54708;43.612;1.568;2023-04-03T11:20:44;3.28;;;2.35;;
67902;SDS011;54708;43.612;1.568;2023-04-03T11:23:21;4.80;;;2.92;;
67902;SDS011;54708;43.612;1.568;2023-04-03T11:25:51;3.75;;;2.17;;
67902;SDS011;54708;43.612;1.568;2023-04-03T11:28:18;2.53;;;2.33;;
67902;SDS011;54708;43.612;1.568;2023-04-03T11:30:46;2.45;;;2.05;;
67902;SDS011;54708;43.612;1.568;2023-04-03T11:36:19;2.25;;;2.05;;
67902;SDS011;54708;43.612;1.568;2023-04-03T11:38:48;3.75;;;2.08;;
67902;SDS011;54708;43.612;1.568;2023-04-03T11:41:17;3.85;;;2.22;;
67902;SDS011;54708;43.612;1.568;2023-04-03T11:44:27;2.30;;;1.73;;
67902;SDS011;54708;43.612;1.568;2023-04-03T11:46:58;3.28;;;2.35;;
67902;SDS011;54708;43.612;1.568;2023-04-03T11:53:10;2.20;;;2.00;;
67902;SDS011;54708;43.612;1.568;2023-04-03T12:08:36;2.63;;;2.08;;
67902;SDS011;54708;43.612;1.568;2023-04-03T12:13:33;3.70;;;1.90;;
67902;SDS011;54708;43.612;1.568;2023-04-03T12:16:03;9.10;;;2.88;;
67902;SDS011;54708;43.612;1.568;2023-04-03T12:21:14;4.32;;;1.80;;
67902;SDS011;54708;43.612;1.568;2023-04-03T12:26:38;3.20;;;1.70;;
67902;SDS011;54708;43.612;1.568;2023-04-03T12:29:13;4.28;;;1.85;;
67902;SDS011;54708;43.612;1.568;2023-04-03T12:31:46;4.22;;;2.08;;
67902;SDS011;54708;43.612;1.568;2023-04-03T12:40:26;4.65;;;2.25;;
67902;SDS011;54708;43.612;1.568;2023-04-03T12:43:03;3.75;;;1.92;;
67902;SDS011;54708;43.612;1.568;2023-04-03T12:56:42;2.35;;;2.00;;
67902;SDS011;54708;43.612;1.568;2023-04-03T12:59:20;2.85;;;1.95;;
67902;SDS011;54708;43.612;1.568;2023-04-03T13:02:00;5.00;;;2.15;;
67902;SDS011;54708;43.612;1.568;2023-04-03T13:04:30;3.65;;;1.90;;
67902;SDS011;54708;43.612;1.568;2023-04-03T13:06:56;5.28;;;2.63;;
67902;SDS011;54708;43.612;1.568;2023-04-03T13:11:51;2.30;;;1.92;;
67902;SDS011;54708;43.612;1.568;2023-04-03T13:14:20;3.95;;;2.08;;
67902;SDS011;54708;43.612;1.568;2023-04-03T13:17:00;3.33;;;2.15;;
67902;SDS011;54708;43.612;1.568;2023-04-03T13:19:28;2.50;;;1.80;;
67902;SDS011;54708;43.612;1.568;2023-04-03T13:21:57;3.35;;;2.15;;
67902;SDS011;54708;43.612;1.568;2023-04-03T13:24:25;3.85;;;2.20;;
67902;SDS011;54708;43.612;1.568;2023-04-03T13:26:50;4.32;;;1.95;;
67902;SDS011;54708;43.612;1.568;2023-04-03T13:29:21;3.50;;;1.77;;
67902;SDS011;54708;43.612;1.568;2023-04-03T13:31:57;3.40;;;2.35;;
67902;SDS011;54708;43.612;1.568;2023-04-03T13:34:24;6.35;;;2.20;;
67902;SDS011;54708;43.612;1.568;2023-04-03T13:41:57;6.45;;;2.15;;
67902;SDS011;54708;43.612;1.568;2023-04-03T13:44:29;4.87;;;2.40;;
67902;SDS011;54708;43.612;1.568;2023-04-03T13:46:59;3.47;;;2.55;;
67902;SDS011;54708;43.612;1.568;2023-04-03T13:52:17;7.03;;;2.10;;
67902;SDS011;54708;43.612;1.568;2023-04-03T13:54:47;2.35;;;1.90;;
67902;SDS011;54708;43.612;1.568;2023-04-03T13:57:13;2.38;;;1.67;;
67902;SDS011;54708;43.612;1.568;2023-04-03T13:59:41;4.03;;;2.17;;
67902;SDS011;54708;43.612;1.568;2023-04-03T14:04:53;6.45;;;2.58;;
67902;SDS011;54708;43.612;1.568;2023-04-03T14:07:23;5.20;;;2.20;;
67902;SDS011;54708;43.612;1.568;2023-04-03T14:09:49;4.57;;;2.53;;
67902;SDS011;54708;43.612;1.568;2023-04-03T14:12:16;3.65;;;2.60;;
67902;SDS011;54708;43.612;1.568;2023-04-03T14:14:44;3.53;;;2.80;;
67902;SDS011;54708;43.612;1.568;2023-04-03T14:17:16;3.38;;;2.20;;
67902;SDS011;54708;43.612;1.568;2023-04-03T14:19:44;3.05;;;2.25;;
67902;SDS011;54708;43.612;1.568;2023-04-03T14:22:18;6.35;;;2.80;;
67902;SDS011;54708;43.612;1.568;2023-04-03T14:24:51;3.10;;;2.78;;
67902;SDS011;54708;43.612;1.568;2023-04-03T14:27:20;4.43;;;2.60;;
67902;SDS011;54708;43.612;1.568;2023-04-03T14:29:52;4.85;;;2.28;;
67902;SDS011;54708;43.612;1.568;2023-04-03T14:32:19;2.67;;;1.80;;
67902;SDS011;54708;43.612;1.568;2023-04-03T14:34:46;5.60;;;2.22;;
67902;SDS011;54708;43.612;1.568;2023-04-03T14:37:13;3.78;;;1.85;;
67902;SDS011;54708;43.612;1.568;2023-04-03T14:39:44;4.72;;;2.30;;
67902;SDS011;54708;43.612;1.568;2023-04-03T14:42:11;6.07;;;2.42;;
67902;SDS011;54708;43.612;1.568;2023-04-03T14:44:38;6.20;;;2.63;;
67902;SDS011;54708;43.612;1.568;2023-04-03T14:47:04;3.88;;;2.25;;
67902;SDS011;54708;43.612;1.568;2023-04-03T14:49:29;6.50;;;2.10;;
67902;SDS011;54708;43.612;1.568;2023-04-03T14:51:56;2.47;;;1.95;;
67902;SDS011;54708;43.612;1.568;2023-04-03T14:54:22;6.30;;;2.55;;
67902;SDS011;54708;43.612;1.568;2023-04-03T14:56:53;3.67;;;2.60;;
67902;SDS011;54708;43.612;1.568;2023-04-03T14:59:19;5.05;;;2.88;;
67902;SDS011;54708;43.612;1.568;2023-04-03T15:01:46;4.32;;;2.08;;
67902;SDS011;54708;43.612;1.568;2023-04-03T15:04:12;4.43;;;2.35;;
67902;SDS011;54708;43.612;1.568;2023-04-03T15:06:40;2.42;;;2.22;;
67902;SDS011;54708;43.612;1.568;2023-04-03T15:09:09;2.92;;;1.83;;
67902;SDS011;54708;43.612;1.568;2023-04-03T15:11:55;5.03;;;2.22;;
67902;SDS011;54708;43.612;1.568;2023-04-03T15:14:20;2.88;;;1.98;;
67902;SDS011;54708;43.612;1.568;2023-04-03T15:16:46;6.72;;;2.63;;
67902;SDS011;54708;43.612;1.568;2023-04-03T15:19:12;3.72;;;2.63;;
67902;SDS011;54708;43.612;1.568;2023-04-03T15:21:38;3.90;;;2.75;;
67902;SDS011;54708;43.612;1.568;2023-04-03T15:24:03;4.75;;;2.53;;
67902;SDS011;54708;43.612;1.568;2023-04-03T15:26:29;3.47;;;2.10;;
67902;SDS011;54708;43.612;1.568;2023-04-03T15:28:55;6.90;;;2.30;;
67902;SDS011;54708;43.612;1.568;2023-04-03T15:31:20;3.20;;;2.05;;
67902;SDS011;54708;43.612;1.568;2023-04-03T15:33:46;2.03;;;1.83;;
67902;SDS011;54708;43.612;1.568;2023-04-03T15:36:11;3.50;;;2.22;;
67902;SDS011;54708;43.612;1.568;2023-04-03T15:38:37;3.65;;;2.22;;
67902;SDS011;54708;43.612;1.568;2023-04-03T15:41:03;2.85;;;1.95;;
67902;SDS011;54708;43.612;1.568;2023-04-03T15:43:29;2.13;;;2.00;;
67902;SDS011;54708;43.612;1.568;2023-04-03T15:45:57;5.63;;;2.20;;
67902;SDS011;54708;43.612;1.568;2023-04-03T15:48:24;5.85;;;3.45;;
67902;SDS011;54708;43.612;1.568;2023-04-03T15:50:49;3.33;;;2.63;;
67902;SDS011;54708;43.612;1.568;2023-04-03T15:53:15;3.83;;;2.20;;
67902;SDS011;54708;43.612;1.568;2023-04-03T15:55:40;5.15;;;2.30;;
67902;SDS011;54708;43.612;1.568;2023-04-03T15:58:06;4.07;;;1.90;;
67902;SDS011;54708;43.612;1.568;2023-04-03T16:00:33;3.85;;;2.10;;
67902;SDS011;54708;43.612;1.568;2023-04-03T16:02:59;4.10;;;2.63;;
67902;SDS011;54708;43.612;1.568;2023-04-03T16:05:30;6.05;;;2.15;;
67902;SDS011;54708;43.612;1.568;2023-04-03T16:07:56;2.92;;;2.17;;
67902;SDS011;54708;43.612;1.568;2023-04-03T16:10:23;5.03;;;2.38;;
67902;SDS011;54708;43.612;1.568;2023-04-03T16:12:48;4.90;;;2.30;;
67902;SDS011;54708;43.612;1.568;2023-04-03T16:15:13;3.10;;;2.20;;
67902;SDS011;54708;43.612;1.568;2023-04-03T16:17:39;2.20;;;2.00;;
67902;SDS011;54708;43.612;1.568;2023-04-03T16:20:06;2.78;;;2.38;;
67902;SDS011;54708;43.612;1.568;2023-04-03T16:22:32;4.57;;;2.20;;
67902;SDS011;54708;43.612;1.568;2023-04-03T16:24:58;3.00;;;1.98;;
67902;SDS011;54708;43.612;1.568;2023-04-03T16:27:23;2.50;;;1.70;;
67902;SDS011;54708;43.612;1.568;2023-04-03T16:29:57;2.03;;;1.70;;
67902;SDS011;54708;43.612;1.568;2023-04-03T16:32:27;2.25;;;2.00;;
67902;SDS011;54708;43.612;1.568;2023-04-03T16:34:54;3.38;;;2.28;;
67902;SDS011;54708;43.612;1.568;2023-04-03T16:37:20;2.72;;;1.70;;
67902;SDS011;54708;43.612;1.568;2023-04-03T16:39:45;4.53;;;1.98;;
67902;SDS011;54708;43.612;1.568;2023-04-03T16:42:11;7.03;;;2.28;;
67902;SDS011;54708;43.612;1.568;2023-04-03T16:44:36;4.53;;;2.10;;
67902;SDS011;54708;43.612;1.568;2023-04-03T16:47:02;4.05;;;2.85;;